createdAt,value
2022-10-06T00:01:13.760Z,89.84
2022-10-06T00:03:47.046Z,90.10
2022-10-06T00:06:16.712Z,90.09
2022-10-06T00:08:45.241Z,90.20
2022-10-06T00:11:14.001Z,90.50
2022-10-06T00:13:41.555Z,90.71
2022-10-06T00:16:11.330Z,90.78
2022-10-06T00:18:38.595Z,90.91
2022-10-06T00:21:06.138Z,90.99
2022-10-06T00:23:33.488Z,91.19
2022-10-06T00:26:00.369Z,90.98
2022-10-06T00:28:28.081Z,91.32
2022-10-06T00:30:56.424Z,91.50
2022-10-06T00:33:24.205Z,91.46
2022-10-06T00:36:00.889Z,91.52
2022-10-06T00:38:28.799Z,91.50
2022-10-06T00:40:56.049Z,91.65
2022-10-06T00:43:47.173Z,91.91
2022-10-06T00:46:19.102Z,91.88
2022-10-06T00:48:49.251Z,91.83
2022-10-06T00:51:16.825Z,91.76
2022-10-06T00:53:43.844Z,92.00
2022-10-06T00:56:12.033Z,92.12
2022-10-06T00:58:39.282Z,92.06
2022-10-06T01:01:07.900Z,92.14
2022-10-06T01:03:39.692Z,92.33
2022-10-06T01:06:07.705Z,92.36
2022-10-06T01:08:35.467Z,92.52
2022-10-06T01:11:03.027Z,92.28
2022-10-06T01:13:31.427Z,92.40
2022-10-06T01:16:05.759Z,92.53
2022-10-06T01:18:33.957Z,92.67
2022-10-06T01:21:18.193Z,92.77
2022-10-06T01:23:45.641Z,92.96
2022-10-06T01:26:14.792Z,92.95
2022-10-06T01:28:41.843Z,92.95
2022-10-06T01:31:09.622Z,92.96
2022-10-06T01:33:36.584Z,93.10
2022-10-06T01:36:04.855Z,93.13
2022-10-06T01:38:32.752Z,93.34
2022-10-06T01:41:03.226Z,93.22
2022-10-06T01:43:30.295Z,93.29
2022-10-06T01:45:58.841Z,93.50
2022-10-06T01:48:27.204Z,93.26
2022-10-06T01:50:56.835Z,93.52
2022-10-06T01:53:23.983Z,93.39
2022-10-06T01:55:50.898Z,93.56
2022-10-06T01:58:23.604Z,93.59
2022-10-06T02:00:51.123Z,93.59
2022-10-06T02:03:18.288Z,93.54
2022-10-06T02:05:45.609Z,93.70
2022-10-06T02:08:13.394Z,93.70
2022-10-06T02:10:41.410Z,93.69
2022-10-06T02:13:14.926Z,93.95
2022-10-06T02:15:41.998Z,93.87
2022-10-06T02:18:09.137Z,93.95
2022-10-06T02:20:36.303Z,93.97
2022-10-06T02:23:03.243Z,94.03
2022-10-06T02:25:30.112Z,94.03
2022-10-06T02:27:57.312Z,93.92
2022-10-06T02:30:24.322Z,93.89
2022-10-06T02:32:51.784Z,93.96
2022-10-06T02:35:20.097Z,93.84
2022-10-06T02:37:48.872Z,93.78
2022-10-06T02:40:18.478Z,93.76
2022-10-06T02:42:46.050Z,93.69
2022-10-06T02:45:16.717Z,93.80
2022-10-06T02:47:44.324Z,93.95
2022-10-06T02:50:13.043Z,93.96
2022-10-06T02:52:42.778Z,93.90
2022-10-06T02:55:10.939Z,93.70
2022-10-06T02:57:38.414Z,94.14
2022-10-06T03:00:07.386Z,94.06
2022-10-06T03:02:34.969Z,93.89
2022-10-06T03:05:02.540Z,94.13
2022-10-06T03:07:29.787Z,93.81
2022-10-06T03:09:57.632Z,93.65
2022-10-06T03:12:25.628Z,93.67
2022-10-06T03:14:52.636Z,93.82
2022-10-06T03:17:20.343Z,93.90
2022-10-06T03:19:52.390Z,93.89
2022-10-06T03:22:19.413Z,93.78
2022-10-06T03:24:51.350Z,93.75
2022-10-06T03:27:18.408Z,93.65
2022-10-06T03:29:46.088Z,93.61
2022-10-06T03:32:14.377Z,93.67
2022-10-06T03:34:43.346Z,93.70
2022-10-06T03:37:13.220Z,93.49
2022-10-06T03:39:40.199Z,93.51
2022-10-06T03:42:07.471Z,93.79
2022-10-06T03:44:35.165Z,93.81
2022-10-06T03:47:02.776Z,93.75
2022-10-06T03:49:31.228Z,93.93
2022-10-06T03:51:58.100Z,93.78
2022-10-06T03:54:28.618Z,94.03
2022-10-06T03:56:56.629Z,93.87
2022-10-06T03:59:24.295Z,93.67
2022-10-06T04:01:53.198Z,93.95
2022-10-06T04:04:28.643Z,94.05
2022-10-06T04:07:00.751Z,94.34
2022-10-06T04:09:27.889Z,94.36
2022-10-06T04:11:54.716Z,94.65
2022-10-06T04:14:21.631Z,94.43
2022-10-06T04:16:50.119Z,94.41
2022-10-06T04:19:22.197Z,94.49
2022-10-06T04:21:52.428Z,94.27
2022-10-06T04:24:22.045Z,94.30
2022-10-06T04:26:50.135Z,94.35
2022-10-06T04:29:18.942Z,94.31
2022-10-06T04:31:50.602Z,94.04
2022-10-06T04:34:43.624Z,94.05
2022-10-06T04:37:10.819Z,93.97
2022-10-06T04:39:38.983Z,93.88
2022-10-06T04:42:07.457Z,93.81
2022-10-06T04:44:34.466Z,93.80
2022-10-06T04:47:04.384Z,93.71
2022-10-06T04:49:32.026Z,93.43
2022-10-06T04:51:59.204Z,93.33
2022-10-06T04:54:33.383Z,93.03
2022-10-06T04:57:01.398Z,92.99
2022-10-06T04:59:48.900Z,92.87
2022-10-06T05:02:17.568Z,92.90
2022-10-06T05:04:45.781Z,92.59
2022-10-06T05:07:15.136Z,92.61
2022-10-06T05:09:42.673Z,92.55
2022-10-06T05:12:11.581Z,92.34
2022-10-06T05:14:39.503Z,92.21
2022-10-06T05:17:06.710Z,91.99
2022-10-06T05:19:35.176Z,91.76
2022-10-06T05:22:02.867Z,91.70
2022-10-06T05:24:31.765Z,91.44
2022-10-06T05:27:02.080Z,91.57
2022-10-06T05:29:29.757Z,91.22
2022-10-06T05:31:57.223Z,91.14
2022-10-06T05:34:24.783Z,90.75
2022-10-06T05:36:52.154Z,90.52
2022-10-06T05:39:19.109Z,90.41
2022-10-06T05:41:50.093Z,90.12
2022-10-06T05:44:17.554Z,89.87
2022-10-06T05:46:45.710Z,89.79
2022-10-06T05:49:13.442Z,89.24
2022-10-06T05:51:45.900Z,89.01
2022-10-06T05:54:17.978Z,88.75
2022-10-06T05:56:44.887Z,88.69
2022-10-06T05:59:12.078Z,88.72
2022-10-06T06:01:41.288Z,88.25
2022-10-06T06:04:16.426Z,87.99
2022-10-06T06:06:48.720Z,87.72
2022-10-06T06:09:21.542Z,86.77
2022-10-06T06:11:54.077Z,86.44
2022-10-06T06:15:08.972Z,85.64
2022-10-06T06:17:41.228Z,85.49
2022-10-06T06:20:09.041Z,85.17
2022-10-06T06:22:35.991Z,85.03
2022-10-06T06:25:04.871Z,84.90
2022-10-06T06:27:32.266Z,84.21
2022-10-06T06:29:59.193Z,84.24
2022-10-06T06:32:28.124Z,83.23
2022-10-06T06:34:56.228Z,83.23
2022-10-06T06:37:24.196Z,83.26
2022-10-06T06:39:51.510Z,83.21
2022-10-06T06:42:18.846Z,82.69
2022-10-06T06:45:00.234Z,82.26
2022-10-06T06:47:40.256Z,81.62
2022-10-06T06:50:10.520Z,81.45
2022-10-06T06:52:39.284Z,81.40
2022-10-06T06:55:09.472Z,81.25
2022-10-06T06:57:36.849Z,80.79
2022-10-06T07:00:08.059Z,80.47
2022-10-06T07:02:36.915Z,80.23
2022-10-06T07:05:04.745Z,80.32
2022-10-06T07:07:32.295Z,79.51
2022-10-06T07:09:59.974Z,79.37
2022-10-06T07:12:26.963Z,79.42
2022-10-06T07:15:16.063Z,79.23
2022-10-06T07:18:05.164Z,78.98
2022-10-06T07:20:50.768Z,78.61
2022-10-06T07:23:39.088Z,78.43
2022-10-06T07:26:13.312Z,78.75
2022-10-06T07:28:42.418Z,78.84
2022-10-06T07:31:10.461Z,79.05
2022-10-06T07:33:39.221Z,79.01
2022-10-06T07:36:06.524Z,78.92
2022-10-06T07:38:34.160Z,79.12
2022-10-06T07:43:53.942Z,78.01
2022-10-06T07:46:22.256Z,78.57
2022-10-06T07:49:03.699Z,78.84
2022-10-06T07:51:31.801Z,78.78
2022-10-06T07:53:59.813Z,78.70
2022-10-06T07:56:32.608Z,79.19
2022-10-06T07:58:59.871Z,79.48
2022-10-06T08:01:29.640Z,79.56
2022-10-06T08:03:57.324Z,79.69
2022-10-06T08:06:24.559Z,79.68
2022-10-06T08:08:56.606Z,79.81
2022-10-06T08:11:24.476Z,78.94
2022-10-06T08:13:52.135Z,78.55
2022-10-06T08:16:24.610Z,78.49
2022-10-06T08:18:53.881Z,78.77
2022-10-06T08:21:27.104Z,78.49
2022-10-06T08:23:55.983Z,77.62
2022-10-06T08:26:25.063Z,77.47
2022-10-06T08:28:55.315Z,77.63
2022-10-06T08:31:23.131Z,77.54
2022-10-06T08:33:54.615Z,77.05
2022-10-06T08:36:21.747Z,77.34
2022-10-06T08:38:51.549Z,77.98
2022-10-06T08:41:27.589Z,77.54
2022-10-06T08:44:02.756Z,78.16
2022-10-06T08:46:36.463Z,77.90
2022-10-06T08:49:04.012Z,77.87
2022-10-06T08:52:00.672Z,78.16
2022-10-06T08:54:58.955Z,78.51
2022-10-06T08:57:28.864Z,78.31
2022-10-06T08:59:59.174Z,77.07
2022-10-06T09:02:34.906Z,76.67
2022-10-06T09:05:05.678Z,76.59
2022-10-06T09:07:52.427Z,76.04
2022-10-06T09:10:22.532Z,75.56
2022-10-06T09:13:00.781Z,74.69
2022-10-06T09:15:49.977Z,74.27
2022-10-06T09:18:56.032Z,73.29
2022-10-06T09:21:21.662Z,72.27
2022-10-06T09:23:54.003Z,71.56
2022-10-06T09:26:31.657Z,70.81
2022-10-06T09:28:59.277Z,71.00
2022-10-06T09:31:44.587Z,70.50
2022-10-06T09:34:45.742Z,70.81
2022-10-06T09:37:13.791Z,70.50
2022-10-06T09:39:51.879Z,71.27
2022-10-06T09:42:35.497Z,71.99
2022-10-06T09:45:23.591Z,70.90
2022-10-06T09:47:50.894Z,71.76
2022-10-06T09:50:22.160Z,71.92
2022-10-06T09:53:03.440Z,71.67
2022-10-06T09:55:33.915Z,71.18
2022-10-06T09:58:01.898Z,72.06
2022-10-06T10:00:34.896Z,71.06
2022-10-06T10:03:09.008Z,70.86
2022-10-06T10:05:46.713Z,70.87
2022-10-06T10:08:13.726Z,69.60
2022-10-06T10:10:41.748Z,69.50
2022-10-06T10:13:26.010Z,69.89
2022-10-06T10:15:59.308Z,69.11
2022-10-06T10:18:30.251Z,69.61
2022-10-06T10:21:08.629Z,70.06
2022-10-06T10:23:55.289Z,70.11
2022-10-06T10:26:40.814Z,70.61
2022-10-06T10:29:32.953Z,70.65
2022-10-06T10:32:12.224Z,69.51
2022-10-06T10:34:52.220Z,68.10
2022-10-06T10:37:32.915Z,68.45
2022-10-06T10:40:08.587Z,68.17
2022-10-06T10:43:01.661Z,68.20
2022-10-06T10:45:34.300Z,68.78
2022-10-06T10:48:07.036Z,69.27
2022-10-06T10:50:38.794Z,69.84
2022-10-06T10:53:15.194Z,69.75
2022-10-06T10:55:46.804Z,70.61
2022-10-06T10:58:21.339Z,71.16
2022-10-06T11:00:58.577Z,70.95
2022-10-06T11:03:25.827Z,71.36
2022-10-06T11:05:52.762Z,71.51
2022-10-06T11:08:34.846Z,72.11
2022-10-06T11:11:08.454Z,71.94
2022-10-06T11:13:44.878Z,71.79
2022-10-06T11:16:42.931Z,72.28
2022-10-06T11:19:30.075Z,72.35
2022-10-06T11:22:14.879Z,72.52
2022-10-06T11:25:04.261Z,72.67
2022-10-06T11:28:20.032Z,72.27
2022-10-06T11:31:22.759Z,70.96
2022-10-06T11:33:55.591Z,70.92
2022-10-06T11:36:58.439Z,70.67
2022-10-06T11:39:37.904Z,71.19
2022-10-06T11:42:13.571Z,71.36
2022-10-06T11:44:45.338Z,71.43
2022-10-06T11:47:16.444Z,71.58
2022-10-06T11:49:52.288Z,69.89
2022-10-06T11:52:19.224Z,69.47
2022-10-06T11:54:57.902Z,68.02
2022-10-06T11:57:30.860Z,67.43
2022-10-06T12:00:04.419Z,67.64
2022-10-06T12:02:39.361Z,67.35
2022-10-06T12:05:49.373Z,67.34
2022-10-06T12:08:00.200Z,66.98
2022-10-06T12:10:30.313Z,66.50
2022-10-06T12:13:51.436Z,66.03
2022-10-06T12:19:31.628Z,65.13
2022-10-06T12:22:17.687Z,63.73
2022-10-06T12:24:54.607Z,63.56
2022-10-06T12:27:39.757Z,63.87
2022-10-06T12:30:23.538Z,62.49
2022-10-06T12:32:57.671Z,62.97
2022-10-06T12:35:40.299Z,61.78
2022-10-06T12:38:35.644Z,61.48
2022-10-06T12:41:02.636Z,61.52
2022-10-06T12:43:43.953Z,62.01
2022-10-06T12:46:22.931Z,62.52
2022-10-06T12:49:34.552Z,63.24
2022-10-06T12:52:17.270Z,63.38
2022-10-06T12:54:55.984Z,63.59
2022-10-06T12:57:28.496Z,64.48
2022-10-06T12:59:55.727Z,64.96
2022-10-06T13:02:27.415Z,65.38
2022-10-06T13:04:59.151Z,65.10
2022-10-06T13:07:29.461Z,64.35
2022-10-06T13:10:15.094Z,64.76
2022-10-06T13:12:46.741Z,65.56
2022-10-06T13:15:22.326Z,66.44
2022-10-06T13:17:54.497Z,66.38
2022-10-06T13:20:36.381Z,65.81
2022-10-06T13:23:18.743Z,64.70
2022-10-06T13:25:50.311Z,64.32
2022-10-06T13:28:36.091Z,64.32
2022-10-06T13:31:11.928Z,64.58
2022-10-06T13:33:42.315Z,65.31
2022-10-06T13:36:11.092Z,64.21
2022-10-06T13:38:39.466Z,65.00
2022-10-06T13:41:07.074Z,65.36
2022-10-06T13:43:40.417Z,65.20
2022-10-06T13:46:11.206Z,64.48
2022-10-06T13:48:46.085Z,62.66
2022-10-06T13:51:29.746Z,60.82
2022-10-06T13:53:59.053Z,60.01
2022-10-06T13:56:36.243Z,59.70
2022-10-06T13:59:32.554Z,60.14
2022-10-06T14:02:22.063Z,59.34
2022-10-06T14:05:30.477Z,59.95
2022-10-06T14:08:25.444Z,58.99
2022-10-06T14:11:02.135Z,58.73
2022-10-06T14:13:38.334Z,58.29
2022-10-06T14:16:08.305Z,55.99
2022-10-06T14:18:41.567Z,55.56
2022-10-06T14:21:28.876Z,55.33
2022-10-06T14:23:56.835Z,53.55
2022-10-06T14:26:32.467Z,52.08
2022-10-06T14:28:59.650Z,52.50
2022-10-06T14:31:28.490Z,52.15
2022-10-06T14:33:57.112Z,52.34
2022-10-06T14:36:29.879Z,52.05
2022-10-06T14:38:58.634Z,51.88
2022-10-06T14:41:28.746Z,51.50
2022-10-06T14:44:03.821Z,51.84
2022-10-06T14:46:31.028Z,52.15
2022-10-06T14:48:58.856Z,52.28
2022-10-06T14:51:27.340Z,52.23
2022-10-06T14:53:56.712Z,53.15
2022-10-06T14:56:26.586Z,53.06
2022-10-06T14:58:53.688Z,52.25
2022-10-06T15:01:23.567Z,53.02
2022-10-06T15:03:56.125Z,53.53
2022-10-06T15:06:42.456Z,52.85
2022-10-06T15:09:10.430Z,53.22
2022-10-06T15:11:38.245Z,52.53
2022-10-06T15:14:06.805Z,53.59
2022-10-06T15:16:34.709Z,53.46
2022-10-06T15:19:05.027Z,52.31
2022-10-06T15:21:35.425Z,52.44
2022-10-06T15:24:04.337Z,53.02
2022-10-06T15:26:50.196Z,52.57
2022-10-06T15:29:18.218Z,52.99
2022-10-06T15:31:54.942Z,53.08
2022-10-06T15:34:25.747Z,53.30
2022-10-06T15:36:54.169Z,53.71
2022-10-06T15:39:23.867Z,53.71
2022-10-06T15:41:51.762Z,54.00
2022-10-06T15:44:19.706Z,54.05
2022-10-06T15:46:56.741Z,54.50
2022-10-06T15:49:32.987Z,54.85
2022-10-06T15:52:03.236Z,55.08
2022-10-06T15:54:39.576Z,55.24
2022-10-06T15:57:17.891Z,55.46
2022-10-06T15:59:46.922Z,55.51
2022-10-06T16:02:16.766Z,56.03
2022-10-06T16:04:45.365Z,55.88
2022-10-06T16:07:15.321Z,56.36
2022-10-06T16:09:46.645Z,56.65
2022-10-06T16:12:20.112Z,56.96
2022-10-06T16:14:47.624Z,57.64
2022-10-06T16:17:15.584Z,58.35
2022-10-06T16:19:43.194Z,58.48
2022-10-06T16:22:12.926Z,58.83
2022-10-06T16:24:40.327Z,59.37
2022-10-06T16:27:14.270Z,59.52
2022-10-06T16:29:41.534Z,60.02
2022-10-06T16:32:09.202Z,60.18
2022-10-06T16:34:36.361Z,60.28
2022-10-06T16:37:03.564Z,60.97
2022-10-06T16:39:30.528Z,61.34
2022-10-06T16:41:57.456Z,61.28
2022-10-06T16:44:24.686Z,61.32
2022-10-06T16:46:51.712Z,61.45
2022-10-06T16:49:19.697Z,60.95
2022-10-06T16:51:46.947Z,61.37
2022-10-06T16:54:15.497Z,61.61
2022-10-06T16:56:48.099Z,61.19
2022-10-06T16:59:21.186Z,61.40
2022-10-06T17:01:49.168Z,61.30
2022-10-06T17:04:20.366Z,61.18
2022-10-06T17:06:50.274Z,61.44
2022-10-06T17:09:20.154Z,60.85
2022-10-06T17:11:52.538Z,60.27
2022-10-06T17:14:21.877Z,59.99
2022-10-06T17:16:51.822Z,60.04
2022-10-06T17:19:21.504Z,60.81
2022-10-06T17:21:52.801Z,61.07
2022-10-06T17:24:25.861Z,60.25
2022-10-06T17:26:53.088Z,60.62
2022-10-06T17:29:21.754Z,60.85
2022-10-06T17:31:51.035Z,60.77
2022-10-06T17:34:21.905Z,60.85
2022-10-06T17:36:52.208Z,61.10
2022-10-06T17:39:21.682Z,60.64
2022-10-06T17:41:50.714Z,61.03
2022-10-06T17:44:23.264Z,61.40
2022-10-06T17:46:53.920Z,61.42
2022-10-06T17:49:22.606Z,61.59
2022-10-06T17:51:51.874Z,62.19
2022-10-06T17:54:21.514Z,61.87
2022-10-06T17:56:51.135Z,61.47
2022-10-06T17:59:24.606Z,62.17
2022-10-06T18:01:56.630Z,61.89
2022-10-06T18:04:24.308Z,61.55
2022-10-06T18:06:53.983Z,62.26
2022-10-06T18:09:21.990Z,63.36
2022-10-06T18:11:54.801Z,63.93
2022-10-06T18:14:27.197Z,64.25
2022-10-06T18:17:00.534Z,64.35
2022-10-06T18:19:34.177Z,64.83
2022-10-06T18:22:03.793Z,65.33
2022-10-06T18:24:31.798Z,65.52
2022-10-06T18:27:00.483Z,66.23
2022-10-06T18:29:33.771Z,66.46
2022-10-06T18:32:38.545Z,65.68
2022-10-06T18:37:35.708Z,65.76
2022-10-06T18:40:06.266Z,65.99
2022-10-06T18:42:33.413Z,65.61
2022-10-06T18:45:19.128Z,65.10
2022-10-06T18:48:04.632Z,64.61
2022-10-06T18:50:32.444Z,63.88
2022-10-06T18:52:59.507Z,63.88
2022-10-06T18:55:27.888Z,64.41
2022-10-06T18:57:55.153Z,64.46
2022-10-06T19:00:22.771Z,64.88
2022-10-06T19:02:52.130Z,64.04
2022-10-06T19:05:19.164Z,64.24
2022-10-06T19:07:46.428Z,64.28
2022-10-06T19:10:14.079Z,64.24
2022-10-06T19:12:40.990Z,64.42
2022-10-06T19:15:08.487Z,64.58
2022-10-06T19:17:35.853Z,64.63
2022-10-06T19:20:02.950Z,65.12
2022-10-06T19:22:29.903Z,65.87
2022-10-06T19:24:57.295Z,66.21
2022-10-06T19:27:25.598Z,66.57
2022-10-06T19:29:56.914Z,67.50
2022-10-06T19:32:32.125Z,68.34
2022-10-06T19:35:00.031Z,68.91
2022-10-06T19:37:29.665Z,69.31
2022-10-06T19:39:56.867Z,69.72
2022-10-06T19:42:42.734Z,70.36
2022-10-06T19:45:12.173Z,71.10
2022-10-06T19:47:40.641Z,72.38
2022-10-06T19:50:12.144Z,73.16
2022-10-06T19:52:41.356Z,73.36
2022-10-06T19:55:08.968Z,73.56
2022-10-06T19:57:35.841Z,73.80
2022-10-06T20:00:05.455Z,74.15
2022-10-06T20:02:42.892Z,74.92
2022-10-06T20:05:15.983Z,75.12
2022-10-06T20:07:45.804Z,75.14
2022-10-06T20:10:13.598Z,75.73
2022-10-06T20:12:44.004Z,76.18
2022-10-06T20:15:12.896Z,76.68
2022-10-06T20:17:42.446Z,77.70
2022-10-06T20:20:10.005Z,77.45
2022-10-06T20:22:37.253Z,77.28
2022-10-06T20:25:05.175Z,77.62
2022-10-06T20:27:32.050Z,77.23
2022-10-06T20:29:59.191Z,77.17
2022-10-06T20:32:26.268Z,77.33
2022-10-06T20:34:53.237Z,77.65
2022-10-06T20:37:20.409Z,77.66
2022-10-06T20:40:05.921Z,78.00
2022-10-06T20:42:33.680Z,78.14
2022-10-06T20:45:00.526Z,78.70
2022-10-06T20:47:27.912Z,78.92
2022-10-06T20:49:55.368Z,79.50
2022-10-06T20:52:23.962Z,80.16
2022-10-06T20:54:51.487Z,80.41
2022-10-06T20:57:18.660Z,80.92
2022-10-06T20:59:46.240Z,81.28
2022-10-06T21:02:13.733Z,82.07
2022-10-06T21:04:59.083Z,82.47
2022-10-06T21:07:26.195Z,82.55
2022-10-06T21:09:53.100Z,83.77
2022-10-06T21:12:20.332Z,84.19
2022-10-06T21:14:47.959Z,84.84
2022-10-06T21:17:14.897Z,85.59
2022-10-06T21:19:41.804Z,85.45
2022-10-06T21:22:08.886Z,85.93
2022-10-06T21:24:35.965Z,85.85
2022-10-06T21:27:03.344Z,86.19
2022-10-06T21:29:30.547Z,86.19
2022-10-06T21:32:16.028Z,86.37
2022-10-06T21:34:43.238Z,86.75
2022-10-06T21:37:10.593Z,87.02
2022-10-06T21:39:37.673Z,87.32
2022-10-06T21:42:04.899Z,87.40
2022-10-06T21:44:31.874Z,87.62
2022-10-06T21:47:02.548Z,88.18
2022-10-06T21:49:29.956Z,88.06
2022-10-06T21:51:58.602Z,88.25
2022-10-06T21:54:25.614Z,88.41
2022-10-06T21:56:53.094Z,88.35
2022-10-06T21:59:20.136Z,88.31
2022-10-06T22:01:49.822Z,88.06
2022-10-06T22:04:17.566Z,88.30
2022-10-06T22:06:47.719Z,87.90
2022-10-06T22:09:17.553Z,87.95
2022-10-06T22:11:45.479Z,87.37
2022-10-06T22:14:14.402Z,87.50
2022-10-06T22:16:42.490Z,87.62
2022-10-06T22:19:12.000Z,87.60
2022-10-06T22:21:41.794Z,87.76
2022-10-06T22:24:14.154Z,87.77
2022-10-06T22:26:42.782Z,88.08
2022-10-06T22:29:12.434Z,87.98
2022-10-06T22:31:41.276Z,88.14
2022-10-06T22:34:10.470Z,88.61
2022-10-06T22:36:37.768Z,88.88
2022-10-06T22:39:05.082Z,88.78
2022-10-06T22:41:32.548Z,88.56
2022-10-06T22:44:00.573Z,88.44
2022-10-06T22:46:30.087Z,88.22
2022-10-06T22:48:57.929Z,88.11
2022-10-06T22:51:25.738Z,88.16
2022-10-06T22:53:57.942Z,88.33
2022-10-06T22:56:31.733Z,88.18
2022-10-06T22:58:59.996Z,87.75
2022-10-06T23:01:28.653Z,88.13
2022-10-06T23:03:56.338Z,88.23
2022-10-06T23:06:24.573Z,88.22
2022-10-06T23:08:52.267Z,88.31
2022-10-06T23:11:21.205Z,87.93
2022-10-06T23:13:50.507Z,87.95
2022-10-06T23:16:19.747Z,88.07
2022-10-06T23:19:05.177Z,88.01
2022-10-06T23:21:32.421Z,87.82
2022-10-06T23:24:00.619Z,87.71
2022-10-06T23:26:28.164Z,87.46
2022-10-06T23:28:57.944Z,87.34
2022-10-06T23:31:25.483Z,86.78
2022-10-06T23:33:53.326Z,86.70
2022-10-06T23:36:20.957Z,86.53
2022-10-06T23:38:48.605Z,86.38
2022-10-06T23:41:16.314Z,86.44
2022-10-06T23:43:43.898Z,86.45
2022-10-06T23:46:10.968Z,86.33
2022-10-06T23:48:37.973Z,86.33
2022-10-06T23:51:08.172Z,86.09
2022-10-06T23:53:35.699Z,86.03
2022-10-06T23:56:03.707Z,85.85
2022-10-06T23:58:30.767Z,85.78
